TimeCST,TemperatureF,Dew PointF,Humidity,Sea Level PressureIn,VisibilityMPH,Wind Direction,Wind SpeedMPH,Gust SpeedMPH,PrecipitationIn,Events,Conditions,WindDirDegrees,DateUTC
12:53 AM,24.1,19.9,84,30.33,10.0,NW,5.8,-,N/A,,Overcast,320,2013-02-16 06:53:00
1:53 AM,21.9,19.0,89,30.33,10.0,NNW,5.8,-,N/A,,Mostly Cloudy,330,2013-02-16 07:53:00
2:53 AM,21.0,15.1,78,30.33,10.0,North,6.9,-,N/A,,Mostly Cloudy,360,2013-02-16 08:53:00
3:30 AM,21.2,15.8,80,30.29,10.0,NW,3.5,-,N/A,,Partly Cloudy,320,2013-02-16 09:30:00
3:53 AM,21.0,15.1,78,30.33,10.0,Calm,Calm,-,N/A,,Clear,0,2013-02-16 09:53:00
4:53 AM,19.9,17.1,89,30.32,8.0,West,4.6,-,N/A,,Clear,280,2013-02-16 10:53:00
5:53 AM,19.0,15.1,85,30.33,10.0,WNW,4.6,-,N/A,,Scattered Clouds,300,2013-02-16 11:53:00
6:53 AM,19.0,15.1,85,30.32,9.0,WNW,4.6,-,N/A,,Partly Cloudy,290,2013-02-16 12:53:00
7:53 AM,19.9,16.0,85,30.33,8.0,West,3.5,-,N/A,,Mostly Cloudy,280,2013-02-16 13:53:00
8:53 AM,21.9,17.1,82,30.32,10.0,SW,3.5,-,N/A,,Mostly Cloudy,220,2013-02-16 14:53:00
9:53 AM,26.1,19.0,75,30.30,10.0,SW,8.1,-,N/A,,Scattered Clouds,230,2013-02-16 15:53:00
10:53 AM,28.0,19.0,69,30.29,10.0,SW,11.5,-,N/A,,Mostly Cloudy,220,2013-02-16 16:53:00
11:53 AM,30.0,19.0,64,30.27,10.0,SW,10.4,-,N/A,,Mostly Cloudy,220,2013-02-16 17:53:00
12:53 PM,32.0,19.9,61,30.22,10.0,South,11.5,-,N/A,,Overcast,190,2013-02-16 18:53:00
1:53 PM,32.0,18.0,56,30.18,10.0,South,10.4,-,N/A,,Overcast,190,2013-02-16 19:53:00
2:53 PM,32.0,18.0,56,30.17,10.0,SW,13.8,-,N/A,,Overcast,220,2013-02-16 20:53:00
3:53 PM,32.0,18.0,56,30.17,10.0,South,10.4,-,N/A,,Overcast,190,2013-02-16 21:53:00
4:53 PM,32.0,19.9,61,30.17,10.0,SSW,10.4,-,N/A,,Overcast,200,2013-02-16 22:53:00
5:53 PM,32.0,21.0,64,30.16,10.0,South,5.8,-,N/A,,Overcast,180,2013-02-16 23:53:00
6:53 PM,32.0,19.0,59,30.14,10.0,South,6.9,-,N/A,,Overcast,170,2013-02-17 00:53:00
7:53 PM,32.0,17.1,54,30.13,10.0,SSE,5.8,-,N/A,,Overcast,150,2013-02-17 01:53:00
8:53 PM,33.1,17.1,52,30.12,10.0,SE,8.1,-,N/A,,Overcast,140,2013-02-17 02:53:00
9:53 PM,33.1,18.0,54,30.11,10.0,SSE,11.5,-,N/A,,Overcast,160,2013-02-17 03:53:00
10:53 PM,33.1,18.0,54,30.10,10.0,SSE,11.5,-,N/A,,Overcast,160,2013-02-17 04:53:00
11:53 PM,33.1,18.0,54,30.08,10.0,South,9.2,-,N/A,,Overcast,170,2013-02-17 05:53:00